createdAt,value
2018-05-24T00:02:16.414Z,15.30
2018-05-24T00:04:45.952Z,15.20
2018-05-24T00:07:15.229Z,15.30
2018-05-24T00:09:44.580Z,15.20
2018-05-24T00:12:13.506Z,15.20
2018-05-24T00:14:42.179Z,15.20
2018-05-24T00:17:11.562Z,15.20
2018-05-24T00:19:40.254Z,15.20
2018-05-24T00:22:08.990Z,15.20
2018-05-24T00:24:37.722Z,15.10
2018-05-24T00:27:07.286Z,15.10
2018-05-24T00:29:36.393Z,15.10
2018-05-24T00:32:05.161Z,15.10
2018-05-24T00:34:34.669Z,15.10
2018-05-24T00:37:03.974Z,15.10
2018-05-24T00:39:33.031Z,15.10
2018-05-24T00:42:01.891Z,15.10
2018-05-24T00:44:30.591Z,15.10
2018-05-24T00:46:59.278Z,15.10
2018-05-24T00:49:28.607Z,15.00
2018-05-24T00:51:57.244Z,15.10
2018-05-24T00:54:25.885Z,15.10
2018-05-24T00:56:54.570Z,15.10
2018-05-24T00:59:24.082Z,15.00
2018-05-24T01:01:52.844Z,14.90
2018-05-24T01:04:22.406Z,14.80
2018-05-24T01:06:52.570Z,14.70
2018-05-24T01:09:22.073Z,14.70
2018-05-24T01:11:50.762Z,14.60
2018-05-24T01:14:19.618Z,14.50
2018-05-24T01:16:48.107Z,14.40
2018-05-24T01:19:16.826Z,14.30
2018-05-24T01:21:45.503Z,14.30
2018-05-24T01:24:14.227Z,14.20
2018-05-24T01:26:42.922Z,14.20
2018-05-24T01:29:11.938Z,14.10
2018-05-24T01:31:40.565Z,14.20
2018-05-24T01:34:09.252Z,14.10
2018-05-24T01:36:55.766Z,14.10
2018-05-24T01:39:24.511Z,14.20
2018-05-24T01:41:53.172Z,14.20
2018-05-24T01:44:22.296Z,14.20
2018-05-24T01:46:50.805Z,14.20
2018-05-24T01:49:19.597Z,14.20
2018-05-24T01:51:48.317Z,14.20
2018-05-24T01:54:18.077Z,14.20
2018-05-24T01:56:46.835Z,14.20
2018-05-24T01:59:17.670Z,14.10
2018-05-24T02:01:47.094Z,14.00
2018-05-24T02:04:18.218Z,14.00
2018-05-24T02:06:46.760Z,14.00
2018-05-24T02:09:17.893Z,14.00
2018-05-24T02:11:46.551Z,14.00
2018-05-24T02:14:15.430Z,14.00
2018-05-24T02:16:44.186Z,14.00
2018-05-24T02:19:12.998Z,14.00
2018-05-24T02:21:41.571Z,14.00
2018-05-24T02:24:11.386Z,13.90
2018-05-24T02:26:40.713Z,13.90
2018-05-24T02:29:10.573Z,13.80
2018-05-24T02:31:39.306Z,13.70
2018-05-24T02:34:08.072Z,13.70
2018-05-24T02:36:37.505Z,13.70
2018-05-24T02:39:07.080Z,13.70
2018-05-24T02:41:35.660Z,13.70
2018-05-24T02:44:04.740Z,13.70
2018-05-24T02:46:34.013Z,13.60
2018-05-24T02:49:02.701Z,13.60
2018-05-24T02:51:32.022Z,13.60
2018-05-24T02:54:00.944Z,13.60
2018-05-24T02:56:30.317Z,13.60
2018-05-24T02:58:59.366Z,13.50
2018-05-24T03:01:28.100Z,13.50
2018-05-24T03:03:57.483Z,13.50
2018-05-24T03:06:26.222Z,13.40
2018-05-24T03:08:55.025Z,13.40
2018-05-24T03:11:23.854Z,13.30
2018-05-24T03:13:52.664Z,13.20
2018-05-24T03:16:22.027Z,13.20
2018-05-24T03:18:50.519Z,13.20
2018-05-24T03:21:19.208Z,13.10
2018-05-24T03:23:47.827Z,13.10
2018-05-24T03:26:16.600Z,13.00
2018-05-24T03:28:46.725Z,13.00
2018-05-24T03:31:15.770Z,13.00
2018-05-24T03:33:44.451Z,13.00
2018-05-24T03:36:12.946Z,13.00
2018-05-24T03:38:42.506Z,12.90
2018-05-24T03:41:11.414Z,12.90
2018-05-24T03:43:40.124Z,13.00
2018-05-24T03:46:09.036Z,13.00
2018-05-24T03:48:37.628Z,13.00
2018-05-24T03:51:06.372Z,13.10
2018-05-24T03:53:35.464Z,13.20
2018-05-24T03:56:04.123Z,13.30
2018-05-24T03:58:32.875Z,13.40
2018-05-24T04:01:19.676Z,13.50
2018-05-24T04:03:50.334Z,13.50
2018-05-24T04:06:19.094Z,13.70
2018-05-24T04:08:47.764Z,13.80
2018-05-24T04:11:16.387Z,13.90
2018-05-24T04:13:44.966Z,13.90
2018-05-24T04:16:14.269Z,14.00
2018-05-24T04:18:43.545Z,14.10
2018-05-24T04:21:12.450Z,14.20
2018-05-24T04:23:41.673Z,14.20
2018-05-24T04:26:11.375Z,14.30
2018-05-24T04:28:40.140Z,14.40
2018-05-24T04:31:09.590Z,14.50
2018-05-24T04:33:38.419Z,14.50
2018-05-24T04:36:06.922Z,14.60
2018-05-24T04:38:35.473Z,14.70
2018-05-24T04:41:04.119Z,14.80
2018-05-24T04:43:32.842Z,14.90
2018-05-24T04:46:01.698Z,15.00
2018-05-24T04:48:31.015Z,15.10
2018-05-24T04:51:00.087Z,15.20
2018-05-24T04:53:29.090Z,15.10
2018-05-24T04:55:58.318Z,14.90
2018-05-24T04:58:26.820Z,14.90
2018-05-24T05:00:55.357Z,15.10
2018-05-24T05:03:24.692Z,15.20
2018-05-24T05:05:53.453Z,15.30
2018-05-24T05:08:22.054Z,15.30
2018-05-24T05:10:50.661Z,15.40
2018-05-24T05:13:19.377Z,15.50
2018-05-24T05:15:48.157Z,15.70
2018-05-24T05:18:17.605Z,16.00
2018-05-24T05:20:46.605Z,15.90
2018-05-24T05:23:16.310Z,16.10
2018-05-24T05:25:45.974Z,16.30
2018-05-24T05:28:14.779Z,16.30
2018-05-24T05:30:43.515Z,16.40
2018-05-24T05:33:12.332Z,16.50
2018-05-24T05:35:41.126Z,16.60
2018-05-24T05:38:09.942Z,16.70
2018-05-24T05:40:38.643Z,16.90
2018-05-24T05:43:07.380Z,16.90
2018-05-24T05:45:36.967Z,17.00
2018-05-24T05:48:05.717Z,17.00
2018-05-24T05:50:34.683Z,17.20
2018-05-24T05:53:04.119Z,17.20
2018-05-24T05:55:33.494Z,17.30
2018-05-24T05:58:02.964Z,17.40
2018-05-24T06:00:31.560Z,17.40
2018-05-24T06:03:00.369Z,17.40
2018-05-24T06:05:29.383Z,17.50
2018-05-24T06:07:58.118Z,17.60
2018-05-24T06:10:26.714Z,17.60
2018-05-24T06:12:55.530Z,17.60
2018-05-24T06:15:24.259Z,17.70
2018-05-24T06:17:52.940Z,17.70
2018-05-24T06:20:21.756Z,17.80
2018-05-24T06:22:50.561Z,17.80
2018-05-24T06:25:20.084Z,17.90
2018-05-24T06:27:51.066Z,18.00
2018-05-24T06:30:20.001Z,18.00
2018-05-24T06:32:49.497Z,18.20
2018-05-24T06:35:18.627Z,18.30
2018-05-24T06:37:47.300Z,18.50
2018-05-24T06:40:16.062Z,18.50
2018-05-24T06:42:44.756Z,18.50
2018-05-24T06:45:13.532Z,18.50
2018-05-24T06:47:43.174Z,18.50
2018-05-24T06:50:12.279Z,18.40
2018-05-24T06:52:40.984Z,18.50
2018-05-24T06:55:10.207Z,18.60
2018-05-24T06:57:39.594Z,18.80
2018-05-24T07:00:09.525Z,18.90
2018-05-24T07:02:39.202Z,19.30
2018-05-24T07:05:07.989Z,19.30
2018-05-24T07:07:37.328Z,19.60
2018-05-24T07:10:06.141Z,19.60
2018-05-24T07:12:34.995Z,19.70
2018-05-24T07:15:03.974Z,19.80
2018-05-24T07:17:32.503Z,20.00
2018-05-24T07:20:02.207Z,20.20
2018-05-24T07:22:30.965Z,20.20
2018-05-24T07:24:59.720Z,20.10
2018-05-24T07:27:29.036Z,20.00
2018-05-24T07:29:58.835Z,19.90
2018-05-24T07:32:28.393Z,20.20
2018-05-24T07:34:57.324Z,20.20
2018-05-24T07:37:25.956Z,20.50
2018-05-24T07:39:54.724Z,20.80
2018-05-24T07:42:23.528Z,21.00
2018-05-24T07:44:52.107Z,21.10
2018-05-24T07:47:21.383Z,21.50
2018-05-24T07:49:51.004Z,21.80
2018-05-24T07:52:20.650Z,21.50
2018-05-24T07:54:49.521Z,22.10
2018-05-24T07:57:19.001Z,22.60
2018-05-24T07:59:48.938Z,23.10
2018-05-24T08:02:18.245Z,23.30
2018-05-24T08:04:47.115Z,24.10
2018-05-24T08:07:16.194Z,24.50
2018-05-24T08:09:45.869Z,24.90
2018-05-24T08:12:14.625Z,24.90
2018-05-24T08:14:43.346Z,25.20
2018-05-24T08:17:12.920Z,25.80
2018-05-24T08:19:41.774Z,25.80
2018-05-24T08:22:10.526Z,25.60
2018-05-24T08:24:39.253Z,25.40
2018-05-24T08:27:08.582Z,24.90
2018-05-24T08:29:38.496Z,25.40
2018-05-24T08:32:07.938Z,25.80
2018-05-24T08:34:36.948Z,26.10
2018-05-24T08:37:05.508Z,26.30
2018-05-24T08:39:35.059Z,26.50
2018-05-24T08:42:04.058Z,26.40
2018-05-24T08:44:33.509Z,26.60
2018-05-24T08:47:02.225Z,26.60
2018-05-24T08:49:31.134Z,26.70
2018-05-24T08:51:59.815Z,26.30
2018-05-24T08:54:28.589Z,27.00
2018-05-24T08:56:57.347Z,27.00
2018-05-24T08:59:26.828Z,26.90
2018-05-24T09:01:56.463Z,26.70
2018-05-24T09:04:25.348Z,27.20
2018-05-24T09:06:54.085Z,27.10
2018-05-24T09:09:23.763Z,27.40
2018-05-24T09:11:52.580Z,27.40
2018-05-24T09:14:21.468Z,27.40
2018-05-24T09:16:50.583Z,27.30
2018-05-24T09:19:19.342Z,27.40
2018-05-24T09:21:49.325Z,27.50
2018-05-24T09:24:18.071Z,27.50
2018-05-24T09:26:46.813Z,27.90
2018-05-24T09:29:16.597Z,27.90
2018-05-24T09:31:45.902Z,27.90
2018-05-24T09:34:15.160Z,27.80
2018-05-24T09:36:43.846Z,27.30
2018-05-24T09:39:12.657Z,27.20
2018-05-24T09:41:41.614Z,26.70
2018-05-24T09:44:10.619Z,26.20
2018-05-24T09:46:39.393Z,27.10
2018-05-24T09:49:08.101Z,27.90
2018-05-24T09:51:36.964Z,27.80
2018-05-24T09:54:06.402Z,28.30
2018-05-24T09:56:35.154Z,28.00
2018-05-24T09:59:03.916Z,27.90
2018-05-24T10:01:33.388Z,28.00
2018-05-24T10:04:02.718Z,27.90
2018-05-24T10:06:31.968Z,28.40
2018-05-24T10:09:00.625Z,28.70
2018-05-24T10:11:29.113Z,28.30
2018-05-24T10:13:58.518Z,28.50
2018-05-24T10:16:27.940Z,28.50
2018-05-24T10:18:57.091Z,28.10
2018-05-24T10:21:25.607Z,28.20
2018-05-24T10:23:54.730Z,28.60
2018-05-24T10:26:23.422Z,28.80
2018-05-24T10:28:52.142Z,28.50
2018-05-24T10:31:20.950Z,28.30
2018-05-24T10:33:50.479Z,28.50
2018-05-24T10:36:20.565Z,28.80
2018-05-24T10:38:49.512Z,29.10
2018-05-24T10:41:18.342Z,29.20
2018-05-24T10:43:47.042Z,29.40
2018-05-24T10:46:15.539Z,30.20
2018-05-24T10:48:44.327Z,29.80
2018-05-24T10:51:13.906Z,30.20
2018-05-24T10:53:44.796Z,30.10
2018-05-24T10:56:14.304Z,30.10
2018-05-24T10:58:43.039Z,30.00
2018-05-24T11:01:13.313Z,29.60
2018-05-24T11:03:42.943Z,29.50
2018-05-24T11:06:12.103Z,29.90
2018-05-24T11:08:40.824Z,30.40
2018-05-24T11:11:10.505Z,30.30
2018-05-24T11:13:39.472Z,29.80
2018-05-24T11:16:09.189Z,29.70
2018-05-24T11:18:37.967Z,29.70
2018-05-24T11:21:06.661Z,29.60
2018-05-24T11:23:36.101Z,29.70
2018-05-24T11:26:04.895Z,30.20
2018-05-24T11:28:33.669Z,30.70
2018-05-24T11:31:02.559Z,30.90
2018-05-24T11:33:32.010Z,31.30
2018-05-24T11:36:02.044Z,31.40
2018-05-24T11:38:31.602Z,31.20
2018-05-24T11:41:01.866Z,31.20
2018-05-24T11:43:30.650Z,31.70
2018-05-24T11:46:00.300Z,31.70
2018-05-24T11:48:29.212Z,31.70
2018-05-24T11:50:59.007Z,31.50
2018-05-24T11:53:27.739Z,32.00
2018-05-24T11:55:57.029Z,31.60
2018-05-24T11:58:26.553Z,31.50
2018-05-24T12:00:57.566Z,31.40
2018-05-24T12:03:26.653Z,31.40
2018-05-24T12:05:55.176Z,31.60
2018-05-24T12:08:23.831Z,31.60
2018-05-24T12:10:53.411Z,31.80
2018-05-24T12:13:22.109Z,31.80
2018-05-24T12:15:51.930Z,31.50
2018-05-24T12:18:20.727Z,31.10
2018-05-24T12:20:50.469Z,31.80
2018-05-24T12:23:19.289Z,31.80
2018-05-24T12:25:50.326Z,32.10
2018-05-24T12:28:22.186Z,32.20
2018-05-24T12:30:52.201Z,32.40
2018-05-24T12:33:20.888Z,32.30
2018-05-24T12:35:50.324Z,32.40
2018-05-24T12:38:20.389Z,32.40
2018-05-24T12:40:49.240Z,32.40
2018-05-24T12:43:18.010Z,32.30
2018-05-24T12:45:47.936Z,31.80
2018-05-24T12:48:16.686Z,31.80
2018-05-24T12:50:45.555Z,31.80
2018-05-24T12:53:15.020Z,32.00
2018-05-24T12:55:44.747Z,32.40
2018-05-24T12:58:15.248Z,32.00
2018-05-24T13:00:44.217Z,32.00
2018-05-24T13:03:14.751Z,31.80
2018-05-24T13:05:44.515Z,31.40
2018-05-24T13:08:13.817Z,31.40
2018-05-24T13:10:42.793Z,31.80
2018-05-24T13:13:13.293Z,31.80
2018-05-24T13:15:42.388Z,31.80
2018-05-24T13:18:11.420Z,31.50
2018-05-24T13:20:40.983Z,31.00
2018-05-24T13:23:10.092Z,31.00
2018-05-24T13:25:39.523Z,31.40
2018-05-24T13:28:09.360Z,30.90
2018-05-24T13:30:38.321Z,30.80
2018-05-24T13:33:07.139Z,30.50
2018-05-24T13:35:35.742Z,30.90
2018-05-24T13:38:05.379Z,30.50
2018-05-24T13:40:34.013Z,30.50
2018-05-24T13:43:02.818Z,30.60
2018-05-24T13:45:32.696Z,31.00
2018-05-24T13:48:01.672Z,30.80
2018-05-24T13:50:31.115Z,30.60
2018-05-24T13:53:00.261Z,30.70
2018-05-24T13:55:30.664Z,31.00
2018-05-24T13:57:59.680Z,30.90
2018-05-24T14:00:31.334Z,31.30
2018-05-24T14:03:00.140Z,31.50
2018-05-24T14:05:31.578Z,31.70
2018-05-24T14:08:02.795Z,31.00
2018-05-24T14:10:31.595Z,31.00
2018-05-24T14:13:00.707Z,30.00
2018-05-24T14:15:29.802Z,29.90
2018-05-24T14:17:59.715Z,30.50
2018-05-24T14:20:30.317Z,30.70
2018-05-24T14:22:59.325Z,30.70
2018-05-24T14:25:28.329Z,30.60
2018-05-24T14:27:56.823Z,30.90
2018-05-24T14:30:25.640Z,30.20
2018-05-24T14:32:56.052Z,30.30
2018-05-24T14:35:26.118Z,30.20
2018-05-24T14:37:54.688Z,30.10
2018-05-24T14:40:23.317Z,30.20
2018-05-24T14:42:52.161Z,30.20
2018-05-24T14:45:21.338Z,30.30
2018-05-24T14:47:55.700Z,30.40
2018-05-24T14:50:24.595Z,29.70
2018-05-24T14:52:53.327Z,29.80
2018-05-24T14:55:22.193Z,30.00
2018-05-24T14:57:52.250Z,30.00
2018-05-24T15:00:22.011Z,30.00
2018-05-24T15:02:51.413Z,29.60
2018-05-24T15:05:21.113Z,29.70
2018-05-24T15:07:51.699Z,29.40
2018-05-24T15:10:20.614Z,29.40
2018-05-24T15:12:50.186Z,29.40
2018-05-24T15:15:22.413Z,29.30
2018-05-24T15:17:52.517Z,29.30
2018-05-24T15:20:23.114Z,29.30
2018-05-24T15:22:52.800Z,29.30
2018-05-24T15:25:22.600Z,29.30
2018-05-24T15:27:51.649Z,29.30
2018-05-24T15:30:23.596Z,29.00
2018-05-24T15:32:52.484Z,29.00
2018-05-24T15:35:22.309Z,28.60
2018-05-24T15:37:52.474Z,28.80
2018-05-24T15:40:23.418Z,28.80
2018-05-24T15:42:52.961Z,28.80
2018-05-24T15:45:22.373Z,28.60
2018-05-24T15:47:52.027Z,28.20
2018-05-24T15:50:22.665Z,28.30
2018-05-24T15:52:52.276Z,28.40
2018-05-24T15:55:22.177Z,28.50
2018-05-24T15:57:52.552Z,28.50
2018-05-24T16:00:21.573Z,28.40
2018-05-24T16:02:51.464Z,28.20
2018-05-24T16:05:22.273Z,28.10
2018-05-24T16:07:54.056Z,27.80
2018-05-24T16:10:23.972Z,28.00
2018-05-24T16:12:53.089Z,28.00
2018-05-24T16:15:22.725Z,27.90
2018-05-24T16:17:52.002Z,27.80
2018-05-24T16:20:22.175Z,27.70
2018-05-24T16:22:52.679Z,27.70
2018-05-24T16:25:21.555Z,27.70
2018-05-24T16:27:51.486Z,27.80
2018-05-24T16:30:21.665Z,27.70
2018-05-24T16:32:51.225Z,27.70
2018-05-24T16:35:21.110Z,27.60
2018-05-24T16:37:51.997Z,27.50
2018-05-24T16:40:22.790Z,27.10
2018-05-24T16:42:52.633Z,27.10
2018-05-24T16:45:22.199Z,27.00
2018-05-24T16:47:52.199Z,27.10
2018-05-24T16:50:22.122Z,27.00
2018-05-24T16:52:51.152Z,27.10
2018-05-24T16:55:19.982Z,27.10
2018-05-24T16:57:50.083Z,26.80
2018-05-24T17:00:20.014Z,26.70
2018-05-24T17:02:48.904Z,26.60
2018-05-24T17:05:18.565Z,26.50
2018-05-24T17:07:48.195Z,26.40
2018-05-24T17:10:18.752Z,26.50
2018-05-24T17:12:48.557Z,26.40
2018-05-24T17:15:18.390Z,26.30
2018-05-24T17:17:47.113Z,26.30
2018-05-24T17:20:15.879Z,26.40
2018-05-24T17:22:46.722Z,26.30
2018-05-24T17:25:17.062Z,26.30
2018-05-24T17:27:46.127Z,26.30
2018-05-24T17:30:14.753Z,26.20
2018-05-24T17:32:44.312Z,26.20
2018-05-24T17:35:14.378Z,26.20
2018-05-24T17:37:43.418Z,26.10
2018-05-24T17:40:13.169Z,26.10
2018-05-24T17:42:43.012Z,26.10
2018-05-24T17:45:12.131Z,26.00
2018-05-24T17:47:43.018Z,25.90
2018-05-24T17:50:13.019Z,25.70
2018-05-24T17:52:43.417Z,25.70
2018-05-24T17:55:12.528Z,25.70
2018-05-24T17:57:41.996Z,25.50
2018-05-24T18:00:11.377Z,25.40
2018-05-24T18:02:41.119Z,25.30
2018-05-24T18:05:11.788Z,25.10
2018-05-24T18:07:42.471Z,25.10
2018-05-24T18:10:12.527Z,24.90
2018-05-24T18:12:42.251Z,24.50
2018-05-24T18:15:10.927Z,24.50
2018-05-24T18:17:40.292Z,24.30
2018-05-24T18:20:10.533Z,24.00
2018-05-24T18:22:39.294Z,24.00
2018-05-24T18:25:08.290Z,23.90
2018-05-24T18:27:37.338Z,23.70
2018-05-24T18:30:07.073Z,23.50
2018-05-24T18:32:37.367Z,23.50
2018-05-24T18:35:07.103Z,23.40
2018-05-24T18:37:37.571Z,23.20
2018-05-24T18:40:06.599Z,23.20
2018-05-24T18:42:35.395Z,23.10
2018-05-24T18:45:04.246Z,23.00
2018-05-24T18:47:32.800Z,23.00
2018-05-24T18:50:02.559Z,22.80
2018-05-24T18:52:31.676Z,22.80
2018-05-24T18:55:00.183Z,22.70
2018-05-24T18:57:28.905Z,22.70
2018-05-24T18:59:57.679Z,22.70
2018-05-24T19:02:27.176Z,22.60
2018-05-24T19:04:57.366Z,22.50
2018-05-24T19:07:26.373Z,22.40
2018-05-24T19:09:55.792Z,22.40
2018-05-24T19:12:25.410Z,22.30
2018-05-24T19:14:54.484Z,22.30
2018-05-24T19:17:24.011Z,22.20
2018-05-24T19:19:53.063Z,22.20
2018-05-24T19:22:21.913Z,22.10
2018-05-24T19:24:51.447Z,22.00
2018-05-24T19:27:20.624Z,21.90
2018-05-24T19:29:49.555Z,21.90
2018-05-24T19:32:19.779Z,21.80
2018-05-24T19:34:52.112Z,21.80
2018-05-24T19:37:22.993Z,21.70
2018-05-24T19:39:51.648Z,21.70
2018-05-24T19:42:20.568Z,21.60
2018-05-24T19:44:49.385Z,21.60
2018-05-24T19:47:19.563Z,21.50
2018-05-24T19:49:50.111Z,21.50
2018-05-24T19:52:19.798Z,21.40
2018-05-24T19:54:49.144Z,21.40
2018-05-24T19:57:19.615Z,21.40
2018-05-24T19:59:50.232Z,21.40
2018-05-24T20:02:22.086Z,21.20
2018-05-24T20:04:52.257Z,20.90
2018-05-24T20:07:21.663Z,20.90
2018-05-24T20:09:52.332Z,20.80
2018-05-24T20:12:21.111Z,20.70
2018-05-24T20:14:50.080Z,20.60
2018-05-24T20:17:19.876Z,20.60
2018-05-24T20:19:48.889Z,20.50
2018-05-24T20:22:18.745Z,20.50
2018-05-24T20:24:49.315Z,20.40
2018-05-24T20:27:21.588Z,20.40
2018-05-24T20:29:51.054Z,20.30
2018-05-24T20:32:19.950Z,20.30
2018-05-24T20:34:49.358Z,20.30
2018-05-24T20:37:18.207Z,20.30
2018-05-24T20:39:47.031Z,20.30
2018-05-24T20:42:15.664Z,20.20
2018-05-24T20:44:44.556Z,20.20
2018-05-24T20:47:13.762Z,20.10
2018-05-24T20:49:43.644Z,20.10
2018-05-24T20:52:12.948Z,20.00
2018-05-24T20:54:41.837Z,19.90
2018-05-24T20:57:10.639Z,19.80
2018-05-24T20:59:39.450Z,19.60
2018-05-24T21:02:09.244Z,19.40
2018-05-24T21:04:38.587Z,19.30
2018-05-24T21:07:07.458Z,19.20
2018-05-24T21:09:36.184Z,19.20
2018-05-24T21:12:05.782Z,19.10
2018-05-24T21:14:35.023Z,19.10
2018-05-24T21:17:04.032Z,19.00
2018-05-24T21:19:33.161Z,18.90
2018-05-24T21:22:04.417Z,18.70
2018-05-24T21:24:33.565Z,18.70
2018-05-24T21:27:02.590Z,18.70
2018-05-24T21:29:31.185Z,18.70
2018-05-24T21:32:00.851Z,18.60
2018-05-24T21:34:29.431Z,18.60
2018-05-24T21:36:57.988Z,18.50
2018-05-24T21:39:26.826Z,18.40
2018-05-24T21:41:56.396Z,18.30
2018-05-24T21:44:25.128Z,18.30
2018-05-24T21:46:53.799Z,18.30
2018-05-24T21:49:22.810Z,18.30
2018-05-24T21:51:53.271Z,18.30
2018-05-24T21:54:23.509Z,18.20
2018-05-24T21:56:52.458Z,18.20
2018-05-24T21:59:22.359Z,18.10
2018-05-24T22:01:50.920Z,18.00
2018-05-24T22:04:19.737Z,18.00
2018-05-24T22:06:49.212Z,17.90
2018-05-24T22:09:18.825Z,17.90
2018-05-24T22:11:47.734Z,17.90
2018-05-24T22:14:17.319Z,17.80
2018-05-24T22:16:45.871Z,17.70
2018-05-24T22:19:15.554Z,17.70
2018-05-24T22:21:44.949Z,17.70
2018-05-24T22:24:13.828Z,17.70
2018-05-24T22:26:42.594Z,17.70
2018-05-24T22:29:11.082Z,17.60
2018-05-24T22:31:40.482Z,17.60
2018-05-24T22:34:10.097Z,17.50
2018-05-24T22:36:38.794Z,17.50
2018-05-24T22:39:07.396Z,17.40
2018-05-24T22:41:36.082Z,17.30
2018-05-24T22:44:05.390Z,17.20
2018-05-24T22:46:34.150Z,17.20
2018-05-24T22:49:02.848Z,17.10
2018-05-24T22:51:32.148Z,17.10
2018-05-24T22:54:02.147Z,16.90
2018-05-24T22:56:31.009Z,16.90
2018-05-24T22:58:59.523Z,16.80
2018-05-24T23:01:28.216Z,16.80
2018-05-24T23:03:56.830Z,16.70
2018-05-24T23:06:25.652Z,16.60
2018-05-24T23:08:54.324Z,16.50
2018-05-24T23:11:23.605Z,16.50
2018-05-24T23:13:52.122Z,16.50
2018-05-24T23:16:20.668Z,16.50
2018-05-24T23:18:49.986Z,16.40
2018-05-24T23:21:19.321Z,16.40
2018-05-24T23:23:48.416Z,16.40
2018-05-24T23:26:18.748Z,16.40
2018-05-24T23:28:47.230Z,16.30
2018-05-24T23:31:15.877Z,16.30
2018-05-24T23:33:45.383Z,16.20
2018-05-24T23:36:14.089Z,16.20
2018-05-24T23:38:42.954Z,16.30
2018-05-24T23:41:11.665Z,16.20
2018-05-24T23:43:40.284Z,16.20
2018-05-24T23:46:08.844Z,16.10
2018-05-24T23:48:38.135Z,16.10
2018-05-24T23:51:06.928Z,16.10
2018-05-24T23:53:36.536Z,16.00
2018-05-24T23:56:05.784Z,15.90
2018-05-24T23:58:35.022Z,15.90
